Time;durP1;ratioP1;P1;durP2;ratioP2;P2;SDS_P1;SDS_P2;PMS_P1;PMS_P2;Temp;Humidity;BMP_temperature;BMP_pressure;BME280_temperature;BME280_humidity;BME280_pressure;Samples;Min_cycle;Max_cycle;Signal;HPM_P1;HPM_P2
2022/12/08 00:02:20;;;;;;;3.77;2.20;;;;;;;-2.06;100.00;100139.06;4871975;29;20510;-82
2022/12/08 00:11:12;;;;;;;7.10;2.40;;;;;;;-1.91;100.00;100118.69;4843542;29;20531;-82
2022/12/08 00:13:40;;;;;;;5.00;2.20;;;;;;;-1.98;100.00;100127.16;4874742;29;20515;-82
2022/12/08 00:16:27;;;;;;;4.43;2.03;;;;;;;-2.02;100.00;100127.94;4816857;29;20052;-82
2022/12/08 00:19:30;;;;;;;4.60;2.40;;;;;;;-2.06;100.00;100128.72;4814085;29;20076;-81
2022/12/08 00:22:44;;;;;;;4.38;2.30;;;;;;;-2.06;100.00;100132.19;4788116;29;20054;-82
2022/12/08 00:25:10;;;;;;;4.90;2.30;;;;;;;-2.02;100.00;100131.41;4831465;29;20101;-82
2022/12/08 00:27:49;;;;;;;4.67;2.10;;;;;;;-2.01;100.00;100130.56;4827576;29;20417;-81
2022/12/08 00:30:23;;;;;;;6.13;2.97;;;;;;;-2.00;100.00;100131.44;4815942;29;20599;-81
2022/12/08 00:32:58;;;;;;;5.90;2.50;;;;;;;-2.03;100.00;100116.69;4809551;29;20398;-82
2022/12/08 00:35:25;;;;;;;4.77;2.13;;;;;;;-2.03;100.00;100129.63;4826866;29;20090;-82
2022/12/08 00:38:08;;;;;;;7.97;4.20;;;;;;;-2.02;100.00;100125.34;4814848;29;20100;-81
2022/12/08 00:40:34;;;;;;;5.90;2.90;;;;;;;-2.02;100.00;100121.06;4809293;29;20109;-81
2022/12/08 00:43:01;;;;;;;4.67;2.60;;;;;;;-2.04;100.00;100127.91;4808577;29;20046;-81
2022/12/08 00:45:28;;;;;;;4.30;2.40;;;;;;;-1.99;100.00;100117.66;4820598;29;20068;-81
2022/12/08 00:47:54;;;;;;;5.97;2.73;;;;;;;-1.98;100.00;100122.88;4818678;29;20078;-80
2022/12/08 00:50:21;;;;;;;5.43;3.60;;;;;;;-2.00;100.00;100119.38;4805746;29;20046;-80
2022/12/08 00:52:48;;;;;;;5.00;2.43;;;;;;;-2.00;100.00;100111.63;4817575;29;20083;-80
2022/12/08 00:55:14;;;;;;;6.63;2.70;;;;;;;-1.88;100.00;100110.97;4846234;29;20052;-80
2022/12/08 00:57:41;;;;;;;5.00;2.83;;;;;;;-1.92;100.00;100097.97;4848462;29;20037;-80
2022/12/08 01:00:08;;;;;;;6.97;3.23;;;;;;;-1.95;100.00;100103.94;4864783;29;20076;-80
2022/12/08 01:02:35;;;;;;;7.00;3.37;;;;;;;-1.88;100.00;100095.44;4864908;29;20080;-80
2022/12/08 01:05:01;;;;;;;7.53;3.73;;;;;;;-1.88;100.00;100100.63;4864592;29;20108;-80
2022/12/08 01:07:28;;;;;;;7.20;3.40;;;;;;;-1.89;100.00;100101.47;4864306;29;20092;-80
2022/12/08 01:09:56;;;;;;;10.50;5.33;;;;;;;-1.86;100.00;100101.53;4864707;29;20100;-81
2022/12/08 01:12:23;;;;;;;12.63;5.23;;;;;;;-1.81;100.00;100097.31;4864780;29;20388;-81
2022/12/08 01:14:49;;;;;;;8.93;4.77;;;;;;;-1.76;100.00;100100.03;4864656;29;20040;-81
2022/12/08 01:17:16;;;;;;;11.43;5.60;;;;;;;-1.68;100.00;100094.97;4856436;29;20068;-81
2022/12/08 01:19:43;;;;;;;13.23;5.90;;;;;;;-1.61;100.00;100092.53;4882617;29;20040;-80
2022/12/08 01:22:09;;;;;;;11.20;5.30;;;;;;;-1.61;100.00;100095.13;4898784;29;20040;-80
2022/12/08 01:24:36;;;;;;;14.53;6.33;;;;;;;-1.56;100.00;100093.50;4883160;29;20525;-80
2022/12/08 01:27:03;;;;;;;14.87;6.77;;;;;;;-1.52;100.00;100090.09;4850024;29;20104;-81
2022/12/08 01:29:29;;;;;;;15.67;6.17;;;;;;;-1.43;100.00;100089.41;4849031;29;20052;-80
2022/12/08 01:31:56;;;;;;;16.77;7.43;;;;;;;-1.41;100.00;100095.50;4884551;29;20059;-81
2022/12/08 01:34:23;;;;;;;10.77;5.77;;;;;;;-1.42;100.00;100097.22;4902902;29;20040;-80
2022/12/08 01:36:49;;;;;;;16.23;7.10;;;;;;;-1.33;100.00;100085.28;4900570;29;20045;-80
2022/12/08 01:39:17;;;;;;;16.50;7.53;;;;;;;-1.29;100.00;100087.06;4894972;29;20052;-81
2022/12/08 01:41:46;;;;;;;17.10;7.27;;;;;;;-1.31;100.00;100088.78;4910904;29;20052;-80
2022/12/08 01:44:12;;;;;;;13.83;6.80;;;;;;;-1.30;100.00;100088.78;4895126;29;20147;-80
2022/12/08 01:46:41;;;;;;;14.53;7.40;;;;;;;-1.26;100.00;100093.22;4906728;29;20044;-80
2022/12/08 01:49:12;;;;;;;17.47;7.83;;;;;;;-1.11;100.00;100086.53;4909959;29;20053;-80
2022/12/08 01:51:58;;;;;;;17.23;8.13;;;;;;;-1.08;100.00;100084.00;4885027;29;20048;-81
2022/12/08 01:54:28;;;;;;;16.07;8.03;;;;;;;-1.06;100.00;100085.75;4895922;29;20048;-80
2022/12/08 01:57:02;;;;;;;15.30;7.53;;;;;;;-1.07;100.00;100080.56;4884086;29;20119;-81
2022/12/08 01:59:29;;;;;;;17.85;8.35;;;;;;;-0.93;100.00;100082.50;4898166;29;20044;-80
2022/12/08 02:01:56;;;;;;;17.20;7.53;;;;;;;-1.01;100.00;100088.41;4883227;29;20115;-80
2022/12/08 02:04:26;;;;;;;17.20;8.10;;;;;;;-1.04;100.00;100083.19;4890463;29;20044;-80
2022/12/08 02:06:53;;;;;;;18.03;8.50;;;;;;;-1.07;100.00;100076.25;4904203;29;20139;-80
2022/12/08 02:09:21;;;;;;;17.77;8.17;;;;;;;-1.02;100.00;100079.78;4896749;29;20100;-79
2022/12/08 02:11:49;;;;;;;15.80;7.73;;;;;;;-1.01;100.00;100070.28;4894818;29;20052;-80
2022/12/08 02:14:16;;;;;;;18.93;8.73;;;;;;;-0.95;100.00;100072.97;4894742;29;20049;-80
2022/12/08 02:17:13;;;;;;;22.13;8.73;;;;;;;-0.98;100.00;100071.22;4909398;29;20096;-80
2022/12/08 02:20:05;;;;;;;16.73;8.50;;;;;;;-0.89;100.00;100073.94;4906940;29;20405;-80
2022/12/08 02:22:49;;;;;;;16.83;8.13;;;;;;;-0.95;100.00;100072.97;4896059;29;20044;-81
2022/12/08 02:25:25;;;;;;;16.92;8.77;;;;;;;-0.95;100.00;100072.97;4906199;29;20052;-80
2022/12/08 02:28:02;;;;;;;21.40;9.17;;;;;;;-0.86;100.00;100067.94;4897194;29;20048;-80
2022/12/08 02:30:43;;;;;;;19.70;8.50;;;;;;;-0.76;100.00;100063.75;4879137;29;20525;-80
2022/12/08 02:33:42;;;;;;;19.00;8.70;;;;;;;-0.82;100.00;100067.16;4870864;29;20052;-80
2022/12/08 02:36:12;;;;;;;17.13;8.70;;;;;;;-0.81;100.00;100061.13;4866386;29;20050;-81
2022/12/08 02:39:17;;;;;;;21.73;10.03;;;;;;;-0.77;100.00;100055.09;4880805;29;20048;-80
2022/12/08 02:41:51;;;;;;;19.15;9.52;;;;;;;-0.72;100.00;100056.06;4855344;29;20404;-80
2022/12/08 02:44:27;;;;;;;18.10;8.07;;;;;;;-0.72;100.00;100055.19;4876943;29;20062;-80
2022/12/08 02:46:57;;;;;;;17.87;8.23;;;;;;;-0.76;100.00;100055.97;4851572;29;20108;-80
2022/12/08 02:49:34;;;;;;;18.43;8.17;;;;;;;-0.80;100.00;100049.00;4856390;29;20075;-81
2022/12/08 02:52:06;;;;;;;20.23;10.13;;;;;;;-0.78;100.00;100048.19;4877712;29;20050;-81
2022/12/08 02:54:33;;;;;;;16.93;8.07;;;;;;;-0.77;100.00;100038.69;4886622;29;20486;-81
2022/12/08 02:57:30;;;;;;;17.60;8.37;;;;;;;-0.77;100.00;100042.13;4883951;29;20136;-81
2022/12/08 03:00:03;;;;;;;14.57;7.67;;;;;;;-0.80;100.00;100031.72;4901161;29;20482;-81
2022/12/08 03:02:57;;;;;;;16.60;7.32;;;;;;;-0.80;100.00;100029.13;4888410;29;20048;-80
2022/12/08 03:05:49;;;;;;;16.33;8.07;;;;;;;-0.81;100.00;100024.81;4885848;29;20494;-81
2022/12/08 03:08:27;;;;;;;16.37;7.87;;;;;;;-0.79;100.00;100019.63;4913706;29;20394;-81
2022/12/08 03:11:00;;;;;;;14.63;7.67;;;;;;;-0.80;100.00;100018.75;4875777;29;20047;-80
2022/12/08 03:13:55;;;;;;;14.03;7.60;;;;;;;-0.75;100.00;100014.53;4870075;29;20051;-81
2022/12/08 03:16:24;;;;;;;14.48;7.00;;;;;;;-0.76;100.00;100004.97;4887014;29;20051;-80
2022/12/08 03:19:16;;;;;;;17.33;7.43;;;;;;;-0.79;100.00;100004.06;4904577;29;20127;-81
2022/12/08 03:21:46;;;;;;;14.07;6.83;;;;;;;-0.81;100.00;100005.78;4892581;29;20041;-79
2022/12/08 03:24:16;;;;;;;16.47;8.30;;;;;;;-0.80;100.00;99998.03;4889101;29;20044;-80
2022/12/08 03:26:53;;;;;;;15.83;7.53;;;;;;;-0.77;100.00;100000.66;4901839;29;20044;-79
2022/12/08 03:29:20;;;;;;;16.40;7.43;;;;;;;-0.79;100.00;99988.50;4888586;29;20059;-78
2022/12/08 03:31:56;;;;;;;14.27;6.90;;;;;;;-0.80;100.00;99995.44;4897155;29;20074;-78
2022/12/08 03:34:25;;;;;;;15.77;7.17;;;;;;;-0.80;100.00;99989.38;4912125;29;20062;-79
2022/12/08 03:36:52;;;;;;;15.87;7.77;;;;;;;-0.77;100.00;99986.81;4906768;29;20052;-79
2022/12/08 03:39:20;;;;;;;17.37;9.00;;;;;;;-0.72;100.00;99980.84;4906773;29;20481;-79
2022/12/08 03:41:47;;;;;;;13.17;7.23;;;;;;;-0.74;100.00;99968.72;4906008;29;20107;-78
2022/12/08 03:44:14;;;;;;;17.63;8.60;;;;;;;-0.77;100.00;99974.72;4884430;29;20068;-79
2022/12/08 03:46:41;;;;;;;14.00;6.70;;;;;;;-0.76;100.00;99971.25;4884954;29;20048;-79
2022/12/08 03:49:07;;;;;;;15.87;7.43;;;;;;;-0.64;100.00;99971.44;4898931;29;20073;-79
2022/12/08 03:51:34;;;;;;;15.40;7.27;;;;;;;-0.59;100.00;99962.03;4915140;29;20068;-80
2022/12/08 03:54:01;;;;;;;11.67;5.63;;;;;;;-0.66;100.00;99947.22;4902385;29;20071;-79
2022/12/08 03:56:35;;;;;;;13.20;6.43;;;;;;;-0.64;100.00;99950.69;4886062;29;20044;-79
2022/12/08 03:59:02;;;;;;;12.65;6.93;;;;;;;-0.72;100.00;99949.72;4918665;29;20095;-79
2022/12/08 04:01:29;;;;;;;14.43;6.80;;;;;;;-0.72;100.00;99951.44;4886680;29;20055;-79
2022/12/08 04:03:55;;;;;;;18.57;7.40;;;;;;;-0.63;100.00;99951.56;4901703;29;20575;-79
2022/12/08 04:06:22;;;;;;;14.17;7.63;;;;;;;-0.64;100.00;99945.50;4902473;29;20044;-79
2022/12/08 04:08:49;;;;;;;12.10;7.23;;;;;;;-0.63;100.00;99934.28;4901407;29;20558;-79
2022/12/08 04:11:17;;;;;;;12.77;6.57;;;;;;;-0.73;100.00;99936.75;4903428;29;20601;-79
2022/12/08 04:13:44;;;;;;;11.43;5.90;;;;;;;-0.74;100.00;99924.63;4903907;29;20056;-79
2022/12/08 04:16:15;;;;;;;12.27;6.80;;;;;;;-0.69;100.00;99918.63;4902511;29;20044;-79
2022/12/08 04:18:42;;;;;;;12.93;5.87;;;;;;;-0.50;100.00;99919.75;4901747;29;20044;-79
2022/12/08 04:21:09;;;;;;;11.73;5.73;;;;;;;-0.63;100.00;99921.31;4917257;29;20491;-78
2022/12/08 04:23:36;;;;;;;11.20;5.30;;;;;;;-0.72;100.00;99920.31;4934597;29;20437;-79
2022/12/08 04:26:03;;;;;;;13.87;6.73;;;;;;;-0.71;100.00;99917.75;4937859;29;20044;-78
2022/12/08 04:28:30;;;;;;;9.67;5.13;;;;;;;-0.70;100.00;99911.69;4922696;29;20043;-79
2022/12/08 04:30:57;;;;;;;9.83;5.10;;;;;;;-0.69;100.00;99909.97;4906957;29;20051;-78
2022/12/08 04:33:23;;;;;;;9.13;5.07;;;;;;;-0.70;100.00;99900.47;4905276;29;20071;-79
2022/12/08 04:35:50;;;;;;;15.80;5.60;;;;;;;-0.63;100.00;99908.34;4915174;29;20049;-79
2022/12/08 04:38:17;;;;;;;8.70;5.13;;;;;;;-0.70;100.00;99897.84;4885073;29;20055;-79
2022/12/08 04:40:44;;;;;;;9.37;4.70;;;;;;;-0.65;100.00;99902.25;4895552;29;20044;-78
2022/12/08 04:43:10;;;;;;;8.87;4.83;;;;;;;-0.67;100.00;99903.09;4903044;29;20047;-79
2022/12/08 04:45:41;;;;;;;11.63;5.27;;;;;;;-0.67;100.00;99888.41;4903276;29;20107;-79
2022/12/08 04:48:08;;;;;;;9.67;4.60;;;;;;;-0.53;100.00;99893.75;4886431;29;20044;-79
2022/12/08 04:50:38;;;;;;;9.00;4.80;;;;;;;-0.47;100.00;99896.44;4886699;29;20052;-79
2022/12/08 04:53:05;;;;;;;10.37;4.50;;;;;;;-0.62;100.00;99886.72;4888347;29;20111;-78
2022/12/08 04:55:32;;;;;;;10.33;5.70;;;;;;;-0.65;100.00;99884.09;4902567;29;20052;-79
2022/12/08 04:57:58;;;;;;;7.57;4.43;;;;;;;-0.66;100.00;99884.09;4887297;29;20047;-79
2022/12/08 05:00:25;;;;;;;9.07;5.00;;;;;;;-0.39;100.00;99879.22;4902575;29;20525;-79
2022/12/08 05:02:51;;;;;;;6.90;4.57;;;;;;;-0.54;100.00;99875.56;4886451;29;20052;-79
2022/12/08 05:05:18;;;;;;;8.53;4.93;;;;;;;-0.58;100.00;99872.97;4901858;29;20040;-79
2022/12/08 05:07:45;;;;;;;8.83;4.43;;;;;;;-0.61;100.00;99870.31;4903209;29;20547;-78
2022/12/08 05:10:12;;;;;;;10.97;5.63;;;;;;;-0.62;100.00;99871.16;4902407;29;20131;-78
2022/12/08 05:12:38;;;;;;;7.67;4.13;;;;;;;-0.59;100.00;99865.13;4902435;29;20047;-78
2022/12/08 05:15:05;;;;;;;8.90;4.90;;;;;;;-0.59;100.00;99865.13;4902804;29;20072;-78
2022/12/08 05:17:32;;;;;;;7.63;4.57;;;;;;;-0.58;100.00;99866.91;4910402;29;20043;-79
2022/12/08 05:19:59;;;;;;;8.33;5.17;;;;;;;-0.49;100.00;99866.13;4906010;29;20048;-78
2022/12/08 05:22:25;;;;;;;7.97;4.50;;;;;;;-0.49;100.00;99876.50;4905064;29;20044;-79
2022/12/08 05:24:52;;;;;;;6.33;4.47;;;;;;;-0.55;100.00;99874.72;4898329;29;20048;-79
2022/12/08 05:27:18;;;;;;;10.63;4.57;;;;;;;-0.53;100.00;99865.22;4898096;29;20100;-79
2022/12/08 05:29:46;;;;;;;8.83;5.20;;;;;;;-0.52;100.00;99860.88;4917664;29;20461;-78
2022/12/08 05:32:13;;;;;;;8.67;4.83;;;;;;;-0.52;100.00;99861.75;4888403;29;20055;-79
2022/12/08 05:34:40;;;;;;;9.43;4.83;;;;;;;-0.40;100.00;99855.84;4898703;29;20048;-79
2022/12/08 05:37:06;;;;;;;10.73;5.50;;;;;;;-0.42;100.00;99857.53;4917229;29;20068;-79
2022/12/08 05:39:33;;;;;;;9.83;5.00;;;;;;;-0.47;100.00;99854.91;4910659;29;20055;-79
2022/12/08 05:42:00;;;;;;;8.57;4.53;;;;;;;-0.50;100.00;99856.63;4902153;29;20047;-79
2022/12/08 05:44:26;;;;;;;8.70;4.83;;;;;;;-0.51;100.00;99847.06;4919871;29;20048;-79
2022/12/08 05:46:53;;;;;;;9.10;4.67;;;;;;;-0.47;100.00;99852.31;4890215;29;20048;-79
2022/12/08 05:49:20;;;;;;;9.77;4.80;;;;;;;-0.31;100.00;99842.97;4910553;29;20068;-79
2022/12/08 05:51:46;;;;;;;9.07;4.80;;;;;;;-0.35;100.00;99847.25;4911469;29;20040;-79
2022/12/08 05:54:13;;;;;;;8.60;5.40;;;;;;;-0.32;100.00;99851.63;4889398;29;20115;-79
2022/12/08 05:56:40;;;;;;;8.97;5.67;;;;;;;-0.41;100.00;99854.13;4895369;29;20458;-79
2022/12/08 05:59:06;;;;;;;9.30;5.57;;;;;;;-0.33;100.00;99849.88;4911975;29;20349;-78
2022/12/08 06:01:45;;;;;;;8.57;4.43;;;;;;;-0.26;100.00;99840.41;4889381;29;20558;-79
2022/12/08 06:04:12;;;;;;;11.03;5.93;;;;;;;-0.22;100.00;99837.00;4884080;29;20076;-79
2022/12/08 06:06:38;;;;;;;10.43;5.90;;;;;;;-0.31;100.00;99835.19;4899570;29;20044;-79
2022/12/08 06:09:05;;;;;;;11.67;6.17;;;;;;;-0.30;100.00;99836.91;4899467;29;20048;-79
2022/12/08 06:11:32;;;;;;;11.90;5.87;;;;;;;-0.22;100.00;99840.47;4909213;29;20104;-79
2022/12/08 06:13:59;;;;;;;9.80;5.40;;;;;;;-0.24;100.00;99837.00;4889050;29;20053;-79
2022/12/08 06:16:26;;;;;;;11.90;5.37;;;;;;;-0.20;100.00;99836.16;4904831;29;20052;-79
2022/12/08 06:18:54;;;;;;;10.43;5.73;;;;;;;-0.26;100.00;99841.28;4912366;29;20041;-81
2022/12/08 06:21:20;;;;;;;10.53;6.43;;;;;;;-0.29;100.00;99836.06;4894797;29;20047;-78
2022/12/08 06:23:48;;;;;;;12.10;6.30;;;;;;;-0.24;100.00;99841.31;4909294;29;20069;-79
2022/12/08 06:26:15;;;;;;;9.60;5.67;;;;;;;-0.28;100.00;99832.59;4906252;29;20685;-79
2022/12/08 06:28:42;;;;;;;12.93;6.30;;;;;;;-0.14;100.00;99840.53;4884848;29;20040;-79
2022/12/08 06:31:12;;;;;;;9.70;5.43;;;;;;;-0.21;100.00;99842.19;4897837;29;20070;-79
2022/12/08 06:33:39;;;;;;;13.37;6.37;;;;;;;-0.15;100.00;99844.00;4900148;29;20064;-80
2022/12/08 06:36:06;;;;;;;11.40;6.00;;;;;;;-0.16;100.00;99845.72;4896660;29;20036;-79
2022/12/08 06:38:33;;;;;;;13.17;7.20;;;;;;;-0.16;100.00;99850.91;4922492;29;20079;-79
2022/12/08 06:41:05;;;;;;;14.47;6.53;;;;;;;-0.17;100.00;99848.28;4887322;29;20391;-79
2022/12/08 06:43:32;;;;;;;11.50;6.53;;;;;;;-0.13;100.00;99839.69;4888979;29;20067;-79
2022/12/08 06:45:59;;;;;;;15.33;7.43;;;;;;;-0.15;100.00;99839.66;4906674;29;20098;-79
2022/12/08 06:48:26;;;;;;;11.20;6.63;;;;;;;-0.16;100.00;99829.28;4905601;29;20487;-79
2022/12/08 06:50:53;;;;;;;14.87;7.20;;;;;;;-0.13;100.00;99835.34;4904541;29;20056;-79
2022/12/08 06:53:19;;;;;;;16.40;7.33;;;;;;;-0.09;100.00;99837.09;4905066;29;20048;-79
2022/12/08 06:55:51;;;;;;;14.63;6.97;;;;;;;0.08;100.00;99839.84;4899158;29;20104;-79
2022/12/08 06:58:25;;;;;;;15.70;7.80;;;;;;;-0.01;100.00;99842.38;4919535;29;20070;-79
2022/12/08 07:00:52;;;;;;;12.77;7.03;;;;;;;-0.05;100.00;99843.22;4905096;29;20097;-79
2022/12/08 07:03:19;;;;;;;14.80;7.67;;;;;;;-0.05;100.00;99840.63;4898792;29;20099;-80
2022/12/08 07:05:46;;;;;;;15.63;7.93;;;;;;;0.10;100.00;99838.16;4916617;29;20048;-80
2022/12/08 07:08:12;;;;;;;13.60;7.90;;;;;;;0.08;100.00;99839.00;4906104;29;20450;-80
2022/12/08 07:10:39;;;;;;;14.67;7.40;;;;;;;-0.02;100.00;99840.63;4899775;29;20074;-80
2022/12/08 07:13:06;;;;;;;14.97;8.03;;;;;;;-0.04;100.00;99848.41;4913157;29;20051;-80
2022/12/08 07:15:32;;;;;;;15.80;8.70;;;;;;;0.02;100.00;99839.81;4899208;29;20072;-80
2022/12/08 07:17:59;;;;;;;17.30;9.97;;;;;;;-0.01;100.00;99842.38;4886556;29;20110;-80
2022/12/08 07:20:26;;;;;;;14.33;7.70;;;;;;;0.04;100.00;99848.50;4897292;29;20040;-81
2022/12/08 07:22:53;;;;;;;13.70;7.73;;;;;;;0.07;100.00;99842.44;4910339;29;20052;-82
2022/12/08 07:25:20;;;;;;;15.70;8.00;;;;;;;0.02;100.00;99846.75;4876248;29;20040;-82
2022/12/08 07:27:48;;;;;;;17.23;9.23;;;;;;;0.01;100.00;99842.41;4882657;29;20503;-82
2022/12/08 07:30:15;;;;;;;15.07;8.87;;;;;;;-0.02;100.00;99836.31;4898199;29;20067;-81
2022/12/08 07:32:42;;;;;;;22.00;11.27;;;;;;;0.03;100.00;99843.28;4901740;29;20044;-81
2022/12/08 07:35:09;;;;;;;21.40;9.57;;;;;;;0.12;100.00;99846.84;4888191;29;20660;-81
2022/12/08 07:37:36;;;;;;;18.63;10.10;;;;;;;0.13;100.00;99845.09;4905102;29;20048;-82
2022/12/08 07:40:04;;;;;;;17.23;9.20;;;;;;;0.11;100.00;99852.03;4902801;29;20067;-82
2022/12/08 07:42:32;;;;;;;20.93;11.13;;;;;;;0.14;100.00;99841.66;4873246;29;20127;-82
2022/12/08 07:44:59;;;;;;;18.10;9.20;;;;;;;0.19;100.00;99833.03;4895728;29;20107;-82
2022/12/08 07:47:26;;;;;;;23.70;10.73;;;;;;;0.19;100.00;99837.38;4888205;29;20055;-82
2022/12/08 07:49:52;;;;;;;21.10;10.47;;;;;;;0.22;100.00;99842.56;4890463;29;20131;-82
2022/12/08 07:52:19;;;;;;;21.00;9.80;;;;;;;0.24;100.00;99833.06;4884808;29;20049;-82
2022/12/08 07:54:46;;;;;;;17.50;9.07;;;;;;;0.18;100.00;99833.91;4869638;29;20470;-84
2022/12/08 07:57:14;;;;;;;23.53;10.47;;;;;;;0.19;100.00;99827.84;4879347;29;20130;-81
2022/12/08 07:59:40;;;;;;;21.73;11.37;;;;;;;0.26;100.00;99831.38;4887528;29;20036;-82
2022/12/08 08:02:17;;;;;;;21.73;11.33;;;;;;;0.35;100.00;99828.84;4880546;29;20036;-81
2022/12/08 08:04:51;;;;;;;21.43;11.30;;;;;;;0.41;100.00;99833.19;4900811;29;20450;-82
2022/12/08 08:07:17;;;;;;;20.87;10.00;;;;;;;0.35;100.00;99831.44;4898837;29;20043;-82
2022/12/08 08:09:44;;;;;;;18.23;10.57;;;;;;;0.39;100.00;99833.19;4884291;29;20430;-82
2022/12/08 08:12:11;;;;;;;21.17;11.20;;;;;;;0.40;100.00;99836.66;4912412;29;20035;-83
2022/12/08 08:15:02;;;;;;;21.73;10.03;;;;;;;0.47;100.00;99843.63;4906278;29;20135;-82
2022/12/08 08:17:29;;;;;;;20.23;10.30;;;;;;;0.46;100.00;99836.69;4888468;29;20048;-82
2022/12/08 08:19:56;;;;;;;20.37;10.13;;;;;;;0.53;100.00;99847.16;4873942;29;20040;-82
2022/12/08 08:22:24;;;;;;;23.53;11.50;;;;;;;0.64;100.00;99841.16;4919470;29;20047;-83
2022/12/08 08:24:50;;;;;;;17.83;10.47;;;;;;;0.63;100.00;99839.41;4906676;29;20048;-81
2022/12/08 08:27:17;;;;;;;18.87;9.53;;;;;;;0.74;100.00;99845.53;4893523;29;20048;-82
2022/12/08 08:29:44;;;;;;;21.53;10.77;;;;;;;0.77;100.00;99851.66;4880758;29;20036;-82
2022/12/08 08:32:11;;;;;;;23.57;10.17;;;;;;;0.72;100.00;99848.13;4897352;29;20601;-82
2022/12/08 08:34:37;;;;;;;21.50;11.03;;;;;;;0.63;100.00;99845.47;4901476;29;20040;-82
2022/12/08 08:37:04;;;;;;;22.10;10.60;;;;;;;0.59;100.00;99841.13;4890137;29;20052;-83
2022/12/08 08:39:31;;;;;;;21.70;10.50;;;;;;;0.68;100.00;99833.41;4871747;29;20044;-82
2022/12/08 08:41:58;;;;;;;20.43;10.37;;;;;;;0.68;100.00;99838.59;4872858;29;20048;-82
2022/12/08 08:44:24;;;;;;;19.60;9.97;;;;;;;0.78;100.00;99837.78;4892737;29;20053;-81
2022/12/08 08:46:51;;;;;;;22.17;12.23;;;;;;;0.77;100.00;99838.66;4887128;29;20091;-82
2022/12/08 08:49:18;;;;;;;19.90;11.37;;;;;;;0.82;100.00;99828.25;4891355;29;20056;-82
2022/12/08 08:51:44;;;;;;;24.25;11.55;;;;;;;0.89;100.00;99824.84;4898063;23;20691;-79
2022/12/08 08:54:11;;;;;;;23.03;11.33;;;;;;;0.97;100.00;99830.94;4943675;29;20051;-77
2022/12/08 08:56:38;;;;;;;18.87;11.17;;;;;;;0.98;100.00;99834.41;4956954;28;20090;-78
2022/12/08 08:59:04;;;;;;;29.13;12.23;;;;;;;0.99;100.00;99833.53;4934198;29;20493;-81
2022/12/08 09:01:31;;;;;;;20.93;10.87;;;;;;;1.00;100.00;99833.53;4960703;28;20043;-78
2022/12/08 09:03:58;;;;;;;17.93;10.57;;;;;;;1.06;100.00;99844.00;4911931;29;20524;-81
2022/12/08 09:06:26;;;;;;;19.47;10.40;;;;;;;1.05;100.00;99829.25;4920129;29;20039;-79
2022/12/08 09:08:53;;;;;;;20.70;10.30;;;;;;;1.02;100.00;99833.59;4932051;29;20043;-80
2022/12/08 09:11:22;;;;;;;25.37;11.17;;;;;;;1.08;100.00;99826.66;4943645;29;20054;-81
2022/12/08 09:13:50;;;;;;;21.80;11.23;;;;;;;0.99;100.00;99831.81;4934243;29;20138;-80
2022/12/08 09:16:19;;;;;;;17.53;9.40;;;;;;;0.99;100.00;99826.59;4901455;29;20644;-81
2022/12/08 09:18:48;;;;;;;20.87;11.20;;;;;;;1.11;100.00;99826.69;4920771;29;20035;-81
2022/12/08 09:21:21;;;;;;;19.57;10.63;;;;;;;1.12;100.00;99814.53;4900775;29;20134;-81
2022/12/08 09:23:48;;;;;;;23.07;10.40;;;;;;;1.20;100.00;99819.78;4948097;28;20047;-81
2022/12/08 09:26:15;;;;;;;20.50;10.97;;;;;;;1.23;100.00;99817.19;4909390;29;20110;-81
2022/12/08 09:28:45;;;;;;;22.80;11.17;;;;;;;1.36;100.00;99817.25;4898475;29;20032;-81
2022/12/08 09:31:13;;;;;;;17.27;10.00;;;;;;;1.33;100.00;99824.16;4906324;29;20095;-82
2022/12/08 09:33:39;;;;;;;18.10;10.83;;;;;;;1.34;100.00;99815.47;4932973;29;20055;-81
2022/12/08 09:36:06;;;;;;;21.73;11.70;;;;;;;1.28;100.00;99813.75;4896660;29;20048;-81
2022/12/08 09:38:33;;;;;;;22.30;10.90;;;;;;;1.23;100.00;99814.56;4902964;29;20046;-82
2022/12/08 09:41:02;;;;;;;19.33;9.23;;;;;;;1.31;100.00;99810.25;4916885;29;20055;-82
2022/12/08 09:43:50;;;;;;;19.23;10.83;;;;;;;1.24;100.00;99808.50;4932941;29;20050;-81
2022/12/08 09:46:18;;;;;;;19.97;10.37;;;;;;;1.30;100.00;99809.41;4948654;29;20051;-80
2022/12/08 09:48:56;;;;;;;17.90;11.10;;;;;;;1.32;100.00;99806.78;4951701;28;20481;-81
2022/12/08 09:51:24;;;;;;;20.40;10.57;;;;;;;1.33;100.00;99811.13;4942008;29;20501;-80
2022/12/08 09:53:55;;;;;;;19.43;10.23;;;;;;;1.25;100.00;99799.81;4920263;29;20052;-81
2022/12/08 09:56:26;;;;;;;20.80;10.17;;;;;;;1.27;100.00;99798.13;4903945;29;20080;-81
2022/12/08 09:59:02;;;;;;;23.47;10.50;;;;;;;1.28;100.00;99790.31;4912936;29;20052;-81
2022/12/08 10:01:32;;;;;;;18.17;9.23;;;;;;;1.35;100.00;99806.81;4902598;29;20071;-81
2022/12/08 10:04:00;;;;;;;16.97;9.67;;;;;;;1.29;100.00;99799.00;4897622;29;20047;-81
2022/12/08 10:06:38;;;;;;;19.00;10.10;;;;;;;1.22;100.00;99797.22;4926897;29;20075;-81
2022/12/08 10:09:23;;;;;;;18.63;9.73;;;;;;;1.20;100.00;99788.56;4948432;29;20036;-80
2022/12/08 10:11:59;;;;;;;17.67;10.40;;;;;;;1.31;100.00;99794.66;4914813;29;20079;-81
2022/12/08 10:14:46;;;;;;;30.23;16.03;;;;;;;1.27;100.00;99795.53;4932042;29;20102;-81
2022/12/08 10:17:20;;;;;;;24.80;14.27;;;;;;;1.31;100.00;99802.47;4911147;29;20131;-81
2022/12/08 10:19:48;;;;;;;19.17;11.43;;;;;;;1.29;100.00;99793.78;4912541;29;20531;-82
2022/12/08 10:22:20;;;;;;;20.43;10.73;;;;;;;1.30;100.00;99793.78;4915148;29;20044;-81
2022/12/08 10:24:53;;;;;;;21.30;10.37;;;;;;;1.33;100.00;99791.19;4929337;29;20516;-83
2022/12/08 10:27:20;;;;;;;18.73;10.13;;;;;;;1.31;100.00;99800.72;4915863;29;20052;-82
2022/12/08 10:29:46;;;;;;;15.40;9.33;;;;;;;1.25;100.00;99795.50;4923586;29;20039;-81
2022/12/08 10:32:22;;;;;;;20.57;10.57;;;;;;;1.23;100.00;99784.22;4930033;29;20151;-82
2022/12/08 10:35:19;;;;;;;17.80;9.57;;;;;;;1.33;100.00;99787.72;4913035;29;20066;-82
2022/12/08 10:37:59;;;;;;;18.00;9.17;;;;;;;1.33;100.00;99782.50;4908380;29;20075;-80
2022/12/08 10:40:28;;;;;;;16.23;8.23;;;;;;;1.35;100.00;99784.28;4926689;29;20048;-81
2022/12/08 10:42:56;;;;;;;15.63;9.47;;;;;;;1.42;100.00;99790.34;4946836;28;20096;-80
2022/12/08 10:45:28;;;;;;;15.73;8.87;;;;;;;1.42;100.00;99786.00;4922184;29;20056;-81
2022/12/08 10:48:02;;;;;;;19.00;9.73;;;;;;;1.39;100.00;99791.22;4931811;29;20043;-81
2022/12/08 10:50:43;;;;;;;19.65;9.68;;;;;;;1.35;100.00;99786.88;4925880;28;20060;-81
2022/12/08 10:53:35;;;;;;;18.27;9.13;;;;;;;1.33;100.00;99779.91;4933830;29;20060;-80
2022/12/08 10:56:01;;;;;;;17.30;8.70;;;;;;;1.34;100.00;99774.69;4945725;28;20051;-80
2022/12/08 10:58:39;;;;;;;19.43;10.83;;;;;;;1.26;100.00;99779.03;4959949;29;20090;-80
2022/12/08 11:01:23;;;;;;;18.77;11.27;;;;;;;1.26;100.00;99781.66;4909192;29;20118;-80
2022/12/08 11:03:56;;;;;;;18.97;10.00;;;;;;;1.19;100.00;99784.22;4946221;29;20761;-79
2022/12/08 11:06:33;;;;;;;25.67;11.02;;;;;;;1.27;100.00;99791.19;4945602;29;20120;-80
2022/12/08 11:09:03;;;;;;;19.70;9.73;;;;;;;1.30;100.00;99793.78;4964700;29;20070;-79
2022/12/08 11:11:38;;;;;;;19.03;9.70;;;;;;;1.21;100.00;99792.91;4961438;28;20044;-80
2022/12/08 11:14:07;;;;;;;18.07;10.50;;;;;;;1.22;100.00;99785.09;4948791;29;20480;-81
2022/12/08 11:16:34;;;;;;;20.50;11.50;;;;;;;1.30;100.00;99783.38;4962773;29;20059;-79
2022/12/08 11:19:05;;;;;;;18.57;10.20;;;;;;;1.29;100.00;99779.03;4955866;28;20509;-80
2022/12/08 11:21:36;;;;;;;19.23;10.07;;;;;;;1.41;100.00;99786.00;4923547;29;20051;-80
2022/12/08 11:24:15;;;;;;;22.80;11.80;;;;;;;1.48;100.00;99779.09;4940738;29;20058;-80
2022/12/08 11:27:03;;;;;;;20.40;10.80;;;;;;;1.48;100.00;99781.69;4937680;29;20044;-80
2022/12/08 11:29:31;;;;;;;21.30;11.23;;;;;;;1.42;100.00;99778.19;4948726;29;20047;-79
2022/12/08 11:32:07;;;;;;;22.17;11.07;;;;;;;1.52;100.00;99780.84;4910676;29;20046;-81
2022/12/08 11:34:44;;;;;;;21.03;11.40;;;;;;;1.52;100.00;99784.31;4932969;29;20039;-80
2022/12/08 11:37:17;;;;;;;21.13;11.53;;;;;;;1.59;100.00;99785.16;4941594;28;20075;-80
2022/12/08 11:39:48;;;;;;;20.47;10.90;;;;;;;1.51;100.00;99766.06;4961433;29;20048;-80